createdAt,value
2022-10-09T00:01:12.455Z,31.48
2022-10-09T00:03:03.107Z,23.27
2022-10-09T00:04:53.856Z,34.33
2022-10-09T00:06:44.643Z,34.90
2022-10-09T00:08:37.480Z,28.98
2022-10-09T00:10:28.590Z,22.83
2022-10-09T00:12:19.085Z,27.77
2022-10-09T00:14:09.878Z,25.77
2022-10-09T00:16:03.949Z,27.15
2022-10-09T00:17:54.633Z,29.30
2022-10-09T00:19:45.528Z,19.38
2022-10-09T00:21:36.413Z,20.63
2022-10-09T00:23:27.199Z,20.92
2022-10-09T00:25:19.299Z,21.58
2022-10-09T00:27:09.946Z,21.77
2022-10-09T00:29:00.781Z,24.17
2022-10-09T00:30:52.102Z,21.25
2022-10-09T00:32:42.668Z,22.85
2022-10-09T00:34:33.563Z,19.45
2022-10-09T00:36:26.256Z,20.65
2022-10-09T00:38:17.102Z,20.80
2022-10-09T00:40:08.856Z,21.35
2022-10-09T00:42:01.660Z,20.52
2022-10-09T00:43:55.129Z,23.88
2022-10-09T00:45:51.499Z,17.92
2022-10-09T00:47:46.511Z,17.08
2022-10-09T00:49:37.284Z,22.45
2022-10-09T00:51:31.125Z,20.65
2022-10-09T00:53:26.125Z,23.08
2022-10-09T00:55:17.377Z,20.08
2022-10-09T00:57:10.287Z,21.85
2022-10-09T00:59:02.836Z,24.88
2022-10-09T01:00:53.852Z,31.58
2022-10-09T01:02:44.979Z,16.63
2022-10-09T01:04:36.257Z,17.87
2022-10-09T01:06:44.430Z,14.88
2022-10-09T01:08:44.196Z,21.13
2022-10-09T01:10:45.030Z,16.27
2022-10-09T01:12:48.595Z,14.32
2022-10-09T01:14:49.776Z,18.05
2022-10-09T01:16:47.328Z,15.95
2022-10-09T01:18:46.795Z,17.90
2022-10-09T01:20:49.334Z,23.25
2022-10-09T01:22:53.429Z,24.38
2022-10-09T01:24:52.641Z,13.88
2022-10-09T01:27:09.783Z,21.17
2022-10-09T01:29:06.346Z,17.75
2022-10-09T01:31:00.015Z,13.05
2022-10-09T01:32:53.372Z,16.85
2022-10-09T01:34:45.944Z,21.13
2022-10-09T01:38:30.218Z,13.60
2022-10-09T01:40:23.565Z,16.73
2022-10-09T01:42:18.442Z,12.93
2022-10-09T01:44:17.391Z,19.33
2022-10-09T01:46:21.238Z,11.68
2022-10-09T01:48:17.314Z,11.15
2022-10-09T01:50:18.720Z,15.38
2022-10-09T01:52:24.488Z,19.58
2022-10-09T01:54:20.918Z,12.48
2022-10-09T01:56:19.022Z,20.90
2022-10-09T01:58:18.536Z,15.82
2022-10-09T02:00:12.094Z,15.70
2022-10-09T02:02:02.730Z,23.00
2022-10-09T02:03:56.508Z,17.10
2022-10-09T02:05:51.244Z,18.33
2022-10-09T02:07:42.073Z,15.90
2022-10-09T02:09:34.192Z,19.17
2022-10-09T02:11:29.278Z,20.20
2022-10-09T02:13:21.412Z,13.95
2022-10-09T02:15:12.516Z,12.93
2022-10-09T02:17:09.098Z,16.70
2022-10-09T02:19:05.876Z,14.60
2022-10-09T02:21:05.578Z,13.98
2022-10-09T02:22:58.398Z,14.75
2022-10-09T02:24:49.485Z,20.45
2022-10-09T02:26:40.716Z,16.85
2022-10-09T02:28:33.188Z,15.83
2022-10-09T02:30:27.972Z,12.80
2022-10-09T02:32:18.921Z,16.08
2022-10-09T02:34:12.690Z,11.18
2022-10-09T02:36:03.712Z,15.88
2022-10-09T02:37:54.248Z,10.88
2022-10-09T02:39:45.101Z,14.05
2022-10-09T02:41:36.211Z,12.27
2022-10-09T02:43:27.052Z,17.05
2022-10-09T02:45:18.953Z,18.42
2022-10-09T02:47:09.809Z,13.38
2022-10-09T02:49:00.871Z,12.77
2022-10-09T02:50:51.184Z,11.07
2022-10-09T02:52:41.917Z,15.00
2022-10-09T02:54:32.780Z,20.08
2022-10-09T02:56:23.841Z,15.80
2022-10-09T02:58:14.566Z,14.48
2022-10-09T03:00:07.408Z,17.77
2022-10-09T03:01:59.648Z,19.45
2022-10-09T03:03:50.695Z,14.15
2022-10-09T03:05:41.735Z,16.13
2022-10-09T03:07:32.455Z,18.27
2022-10-09T03:09:23.664Z,11.10
2022-10-09T03:11:16.755Z,16.30
2022-10-09T03:13:07.547Z,15.10
2022-10-09T03:14:57.863Z,15.00
2022-10-09T03:16:48.768Z,17.25
2022-10-09T03:18:41.200Z,13.88
2022-10-09T03:20:32.296Z,15.07
2022-10-09T03:22:23.392Z,15.05
2022-10-09T03:24:14.555Z,17.02
2022-10-09T03:26:08.298Z,18.13
2022-10-09T03:27:58.832Z,19.30
2022-10-09T03:29:49.556Z,12.50
2022-10-09T03:31:51.994Z,13.20
2022-10-09T03:33:45.066Z,18.75
2022-10-09T03:35:35.487Z,11.68
2022-10-09T03:37:26.499Z,18.25
2022-10-09T03:39:17.442Z,17.08
2022-10-09T03:41:08.444Z,10.57
2022-10-09T03:42:59.244Z,17.95
2022-10-09T03:44:50.748Z,15.00
2022-10-09T03:46:41.463Z,15.98
2022-10-09T03:48:34.183Z,15.55
2022-10-09T03:50:26.278Z,13.98
2022-10-09T03:52:16.834Z,15.73
2022-10-09T03:54:07.700Z,18.88
2022-10-09T03:55:58.572Z,14.48
2022-10-09T03:57:49.417Z,15.15
2022-10-09T03:59:40.316Z,20.83
2022-10-09T04:01:31.337Z,18.50
2022-10-09T04:03:21.802Z,24.10
2022-10-09T04:05:12.489Z,21.85
2022-10-09T04:07:04.655Z,20.70
2022-10-09T04:08:55.133Z,20.05
2022-10-09T04:10:46.036Z,22.88
2022-10-09T04:12:37.020Z,20.65
2022-10-09T04:14:27.880Z,25.55
2022-10-09T04:16:18.783Z,27.80
2022-10-09T04:18:09.456Z,19.63
2022-10-09T04:20:00.254Z,26.25
2022-10-09T04:21:50.855Z,23.42
2022-10-09T04:23:43.014Z,28.92
2022-10-09T04:27:24.313Z,20.38
2022-10-09T04:29:15.301Z,21.13
2022-10-09T04:31:06.131Z,27.45
2022-10-09T04:32:57.128Z,24.42
2022-10-09T04:34:48.120Z,33.40
2022-10-09T04:36:38.675Z,31.70
2022-10-09T04:38:31.570Z,23.00
2022-10-09T04:40:23.708Z,29.73
2022-10-09T04:42:14.480Z,19.95
2022-10-09T04:44:05.331Z,24.23
2022-10-09T04:45:56.258Z,19.00
2022-10-09T04:47:46.972Z,24.00
2022-10-09T04:49:37.778Z,22.45
2022-10-09T04:51:28.817Z,22.38
2022-10-09T04:53:19.382Z,21.65
2022-10-09T04:55:10.547Z,25.88
2022-10-09T04:57:02.418Z,30.95
2022-10-09T04:58:53.064Z,22.10
2022-10-09T05:00:46.177Z,22.40
2022-10-09T05:02:37.351Z,21.65
2022-10-09T05:04:27.957Z,25.80
2022-10-09T05:06:20.751Z,22.85
2022-10-09T05:08:11.432Z,35.35
2022-10-09T05:10:02.055Z,31.60
2022-10-09T05:11:52.815Z,21.48
2022-10-09T05:13:47.289Z,28.05
2022-10-09T05:15:38.304Z,29.98
2022-10-09T05:17:29.080Z,30.83
2022-10-09T05:19:19.765Z,22.58
2022-10-09T05:21:11.050Z,25.67
2022-10-09T05:23:01.616Z,23.02
2022-10-09T05:24:52.482Z,23.95
2022-10-09T05:26:43.350Z,23.20
2022-10-09T05:28:35.118Z,33.72
2022-10-09T05:30:27.717Z,23.10
2022-10-09T05:32:18.268Z,24.50
2022-10-09T05:34:09.354Z,27.73
2022-10-09T05:36:02.287Z,28.80
2022-10-09T05:37:52.781Z,27.52
2022-10-09T05:39:43.501Z,33.33
2022-10-09T05:41:34.424Z,28.55
2022-10-09T05:43:26.157Z,26.55
2022-10-09T05:45:16.924Z,22.15
2022-10-09T05:47:09.169Z,24.00
2022-10-09T05:49:02.087Z,33.67
2022-10-09T05:50:52.914Z,30.63
2022-10-09T05:52:43.782Z,27.55
2022-10-09T05:54:34.483Z,29.73
2022-10-09T05:56:27.843Z,29.27
2022-10-09T05:58:18.558Z,25.13
2022-10-09T06:00:11.495Z,23.05
2022-10-09T06:02:02.402Z,28.25
2022-10-09T06:03:56.596Z,38.85
2022-10-09T06:05:47.303Z,37.47
2022-10-09T06:07:38.177Z,29.52
2022-10-09T06:09:29.198Z,31.58
2022-10-09T06:11:22.380Z,22.15
2022-10-09T06:13:12.882Z,33.75
2022-10-09T06:15:04.356Z,28.05
2022-10-09T06:16:55.141Z,27.40
2022-10-09T06:18:49.420Z,30.73
2022-10-09T06:20:41.568Z,26.30
2022-10-09T06:22:32.291Z,28.23
2022-10-09T06:24:28.838Z,33.47
2022-10-09T06:26:21.528Z,37.20
2022-10-09T06:30:02.363Z,31.15
2022-10-09T06:31:53.457Z,29.33
2022-10-09T06:33:45.473Z,29.85
2022-10-09T06:35:36.952Z,27.77
2022-10-09T06:37:29.086Z,30.83
2022-10-09T06:39:20.037Z,32.45
2022-10-09T06:41:14.044Z,29.65
2022-10-09T06:43:05.489Z,32.03
2022-10-09T06:44:56.417Z,24.45
2022-10-09T06:46:49.560Z,31.75
2022-10-09T06:48:41.032Z,33.47
2022-10-09T06:50:35.400Z,21.88
2022-10-09T06:52:27.574Z,28.20
2022-10-09T06:54:18.177Z,34.70
2022-10-09T06:56:09.925Z,29.90
2022-10-09T06:58:00.783Z,27.45
2022-10-09T06:59:51.645Z,32.17
2022-10-09T07:01:42.351Z,30.30
2022-10-09T07:03:33.833Z,37.33
2022-10-09T07:05:24.921Z,23.23
2022-10-09T07:07:15.365Z,28.98
2022-10-09T07:09:10.312Z,31.38
2022-10-09T07:11:07.078Z,30.23
2022-10-09T07:12:57.647Z,31.88
2022-10-09T07:14:48.375Z,28.83
2022-10-09T07:16:42.566Z,34.30
2022-10-09T07:18:33.821Z,26.40
2022-10-09T07:20:24.507Z,34.53
2022-10-09T07:22:15.296Z,31.45
2022-10-09T07:24:08.271Z,27.73
2022-10-09T07:25:59.986Z,32.50
2022-10-09T07:27:50.900Z,37.55
2022-10-09T07:29:41.368Z,31.45
2022-10-09T07:31:32.128Z,29.60
2022-10-09T07:33:23.122Z,33.92
2022-10-09T07:35:14.207Z,36.20
2022-10-09T07:37:04.831Z,28.27
2022-10-09T07:38:58.144Z,32.83
2022-10-09T07:40:50.141Z,28.77
2022-10-09T07:42:40.888Z,28.40
2022-10-09T07:44:31.932Z,38.80
2022-10-09T07:46:24.558Z,34.33
2022-10-09T07:48:15.552Z,32.58
2022-10-09T07:50:07.877Z,35.92
2022-10-09T07:51:58.907Z,24.98
2022-10-09T07:53:50.855Z,30.27
2022-10-09T07:55:45.448Z,25.10
2022-10-09T07:57:37.397Z,23.95
2022-10-09T08:01:20.535Z,29.85
2022-10-09T08:03:11.785Z,25.92
2022-10-09T08:05:02.682Z,28.50
2022-10-09T08:06:53.600Z,30.25
2022-10-09T08:08:44.861Z,28.98
2022-10-09T08:10:35.662Z,26.92
2022-10-09T08:12:26.714Z,30.38
2022-10-09T08:14:19.555Z,24.30
2022-10-09T08:16:11.116Z,30.08
2022-10-09T08:18:01.784Z,29.67
2022-10-09T08:19:52.465Z,30.88
2022-10-09T08:21:43.202Z,25.25
2022-10-09T08:23:33.887Z,22.92
2022-10-09T08:25:24.795Z,26.65
2022-10-09T08:27:16.009Z,24.00
2022-10-09T08:29:06.974Z,24.15
2022-10-09T08:30:59.167Z,20.98
2022-10-09T08:32:50.407Z,32.88
2022-10-09T08:34:41.819Z,23.70
2022-10-09T08:36:32.650Z,23.05
2022-10-09T08:38:46.266Z,21.58
2022-10-09T08:40:45.210Z,17.52
2022-10-09T08:42:42.893Z,26.95
2022-10-09T08:44:39.271Z,21.98
2022-10-09T08:46:57.388Z,19.88
2022-10-09T08:48:50.796Z,20.35
2022-10-09T08:50:49.637Z,22.17
2022-10-09T08:52:50.253Z,22.00
2022-10-09T08:54:41.097Z,21.30
2022-10-09T08:56:34.243Z,17.93
2022-10-09T08:58:29.478Z,23.48
2022-10-09T09:00:23.859Z,21.38
2022-10-09T09:02:35.813Z,22.08
2022-10-09T09:04:59.988Z,18.73
2022-10-09T09:07:02.539Z,20.42
2022-10-09T09:08:59.694Z,20.95
2022-10-09T09:10:57.456Z,26.75
2022-10-09T09:12:54.689Z,15.35
2022-10-09T09:15:01.363Z,21.27
2022-10-09T09:17:03.160Z,25.95
2022-10-09T09:19:16.155Z,22.25
2022-10-09T09:21:21.924Z,20.65
2022-10-09T09:23:15.904Z,20.05
2022-10-09T09:25:20.460Z,19.10
2022-10-09T09:27:15.876Z,19.08
2022-10-09T09:29:06.901Z,21.08
2022-10-09T09:31:03.353Z,18.88
2022-10-09T09:33:04.686Z,17.55
2022-10-09T09:35:08.161Z,18.55
2022-10-09T09:36:59.112Z,19.35
2022-10-09T09:39:26.057Z,15.05
2022-10-09T09:41:03.152Z,14.23
2022-10-09T09:42:54.969Z,13.73
2022-10-09T09:44:55.864Z,17.77
2022-10-09T09:46:49.208Z,15.98
2022-10-09T09:48:43.379Z,15.43
2022-10-09T09:51:10.367Z,20.23
2022-10-09T09:52:54.722Z,14.45
2022-10-09T09:54:49.034Z,14.00
2022-10-09T09:57:10.603Z,18.23
2022-10-09T09:58:53.943Z,15.98
2022-10-09T10:00:54.876Z,16.77
2022-10-09T10:02:45.436Z,11.20
2022-10-09T10:04:39.839Z,10.65
2022-10-09T10:06:42.128Z,13.68
2022-10-09T10:08:34.430Z,11.85
2022-10-09T10:10:27.309Z,11.15
2022-10-09T10:12:19.277Z,19.77
2022-10-09T10:14:14.440Z,14.53
2022-10-09T10:16:07.895Z,15.02
2022-10-09T10:18:02.597Z,13.57
2022-10-09T10:19:53.171Z,16.98
2022-10-09T10:21:55.071Z,17.75
2022-10-09T10:23:52.222Z,11.48
2022-10-09T10:25:43.085Z,9.30
2022-10-09T10:27:40.291Z,12.18
2022-10-09T10:29:37.111Z,11.93
2022-10-09T10:31:50.241Z,9.32
2022-10-09T10:33:44.514Z,16.75
2022-10-09T10:35:41.282Z,18.08
2022-10-09T10:37:42.602Z,11.75
2022-10-09T10:39:41.616Z,14.75
2022-10-09T10:41:38.699Z,12.73
2022-10-09T10:43:38.924Z,14.80
2022-10-09T10:45:35.394Z,10.52
2022-10-09T10:47:30.802Z,13.60
2022-10-09T10:49:23.125Z,10.27
2022-10-09T10:51:54.160Z,13.85
2022-10-09T10:54:03.141Z,13.55
2022-10-09T10:56:00.210Z,8.82
2022-10-09T10:58:06.639Z,11.18
2022-10-09T11:00:04.610Z,10.52
2022-10-09T11:02:41.987Z,10.55
2022-10-09T11:04:50.520Z,12.18
2022-10-09T11:06:52.098Z,9.90
2022-10-09T11:09:02.933Z,8.55
2022-10-09T11:11:03.257Z,14.25
2022-10-09T11:13:01.050Z,17.52
2022-10-09T11:15:04.755Z,12.43
2022-10-09T11:17:05.163Z,13.13
2022-10-09T11:19:28.327Z,11.35
2022-10-09T11:21:37.450Z,10.30
2022-10-09T11:23:47.421Z,12.35
2022-10-09T11:25:50.403Z,9.82
2022-10-09T11:27:49.833Z,14.57
2022-10-09T11:29:45.239Z,10.60
2022-10-09T11:31:41.250Z,9.00
2022-10-09T11:33:38.667Z,12.27
2022-10-09T11:35:36.776Z,10.38
2022-10-09T11:37:32.779Z,12.68
2022-10-09T11:39:28.588Z,11.07
2022-10-09T11:41:21.534Z,15.13
2022-10-09T11:43:35.457Z,15.57
2022-10-09T11:45:35.947Z,13.77
2022-10-09T11:47:34.573Z,13.23
2022-10-09T11:49:35.744Z,15.00
2022-10-09T11:51:34.777Z,16.33
2022-10-09T11:53:28.454Z,12.77
2022-10-09T11:55:23.888Z,10.25
2022-10-09T11:57:28.251Z,10.20
2022-10-09T11:59:23.985Z,10.77
2022-10-09T12:01:25.985Z,7.78
2022-10-09T12:03:30.747Z,11.38
2022-10-09T12:05:38.600Z,15.40
2022-10-09T12:07:34.260Z,11.85
2022-10-09T12:09:28.800Z,12.10
2022-10-09T12:11:19.996Z,10.38
2022-10-09T12:13:41.695Z,10.77
2022-10-09T12:15:40.528Z,14.75
2022-10-09T12:17:35.104Z,11.73
2022-10-09T12:19:30.055Z,8.65
2022-10-09T12:21:26.309Z,11.35
2022-10-09T12:23:26.616Z,7.90
2022-10-09T12:25:28.125Z,9.05
2022-10-09T12:27:23.988Z,10.85
2022-10-09T12:29:24.443Z,19.83
2022-10-09T12:31:22.029Z,14.23
2022-10-09T12:33:22.564Z,9.80
2022-10-09T12:35:22.531Z,7.25
2022-10-09T12:37:16.736Z,11.73
2022-10-09T12:39:15.829Z,7.53
2022-10-09T12:41:15.603Z,6.35
2022-10-09T12:43:08.647Z,8.63
2022-10-09T12:45:00.588Z,11.13
2022-10-09T12:46:51.934Z,11.57
2022-10-09T12:48:43.623Z,10.68
2022-10-09T12:50:35.856Z,11.48
2022-10-09T12:52:27.463Z,10.95
2022-10-09T12:54:18.264Z,11.95
2022-10-09T12:56:12.266Z,11.23
2022-10-09T12:58:06.604Z,9.18
2022-10-09T12:59:58.135Z,6.53
2022-10-09T13:01:53.755Z,13.83
2022-10-09T13:03:55.066Z,14.93
2022-10-09T13:05:45.907Z,9.00
2022-10-09T13:07:36.959Z,9.88
2022-10-09T13:09:33.944Z,9.38
2022-10-09T13:11:32.793Z,8.35
2022-10-09T13:13:27.255Z,10.85
2022-10-09T13:15:32.351Z,13.73
2022-10-09T13:21:23.183Z,7.13
2022-10-09T13:23:29.355Z,9.15
2022-10-09T13:25:20.301Z,7.68
2022-10-09T13:27:12.059Z,10.38
2022-10-09T13:29:02.985Z,9.02
2022-10-09T13:30:53.911Z,9.43
2022-10-09T13:32:46.372Z,13.13
2022-10-09T13:34:37.315Z,8.48
2022-10-09T13:36:28.072Z,11.80
2022-10-09T13:38:18.946Z,10.13
2022-10-09T13:40:14.072Z,6.82
2022-10-09T13:42:05.414Z,12.65
2022-10-09T13:43:56.375Z,10.40
2022-10-09T13:45:47.346Z,10.63
2022-10-09T13:47:38.338Z,6.25
2022-10-09T13:49:30.431Z,9.80
2022-10-09T13:53:11.835Z,9.00
2022-10-09T13:55:02.720Z,6.90
2022-10-09T13:56:53.796Z,7.53
2022-10-09T13:58:44.709Z,8.65
2022-10-09T14:00:35.853Z,6.47
2022-10-09T14:02:26.641Z,9.57
2022-10-09T14:04:17.246Z,13.68
2022-10-09T14:06:09.585Z,8.07
2022-10-09T14:08:00.035Z,11.43
2022-10-09T14:09:50.734Z,8.80
2022-10-09T14:11:41.665Z,7.63
2022-10-09T14:13:32.786Z,11.65
2022-10-09T14:15:24.174Z,8.88
2022-10-09T14:17:15.214Z,7.68
2022-10-09T14:19:06.588Z,13.10
2022-10-09T14:20:57.070Z,7.93
2022-10-09T14:22:51.742Z,6.93
2022-10-09T14:24:43.495Z,14.73
2022-10-09T14:26:34.338Z,11.23
2022-10-09T14:28:25.268Z,9.52
2022-10-09T14:30:16.374Z,10.00
2022-10-09T14:32:07.159Z,15.00
2022-10-09T14:33:59.473Z,7.43
2022-10-09T14:35:50.058Z,12.40
2022-10-09T14:37:42.218Z,10.40
2022-10-09T14:39:34.250Z,11.65
2022-10-09T14:41:25.027Z,9.55
2022-10-09T14:43:15.985Z,8.75
2022-10-09T14:45:08.719Z,10.20
2022-10-09T14:46:59.316Z,9.30
2022-10-09T14:48:50.492Z,10.80
2022-10-09T14:50:41.304Z,9.10
2022-10-09T14:52:32.404Z,10.48
2022-10-09T14:54:22.962Z,7.18
2022-10-09T14:56:18.312Z,9.18
2022-10-09T14:58:09.012Z,15.05
2022-10-09T14:59:59.772Z,8.07
2022-10-09T15:01:50.684Z,10.30
2022-10-09T15:03:41.883Z,8.38
2022-10-09T15:05:35.185Z,8.07
2022-10-09T15:07:26.057Z,14.65
2022-10-09T15:09:16.851Z,9.80
2022-10-09T15:11:08.422Z,11.35
2022-10-09T15:13:00.443Z,10.88
2022-10-09T15:14:51.650Z,13.23
2022-10-09T15:16:42.444Z,10.90
2022-10-09T15:18:33.350Z,10.77
2022-10-09T15:20:23.883Z,10.90
2022-10-09T15:22:14.713Z,12.73
2022-10-09T15:24:05.956Z,8.93
2022-10-09T15:25:58.838Z,17.55
2022-10-09T15:27:54.424Z,7.97
2022-10-09T15:29:46.752Z,10.73
2022-10-09T15:31:40.242Z,10.70
2022-10-09T15:33:31.441Z,8.10
2022-10-09T15:35:22.431Z,14.27
2022-10-09T15:37:13.418Z,14.65
2022-10-09T15:39:04.826Z,8.90
2022-10-09T15:40:56.806Z,14.15
2022-10-09T15:42:47.581Z,9.95
2022-10-09T15:44:38.482Z,11.00
2022-10-09T15:46:31.427Z,14.20
2022-10-09T15:48:24.485Z,14.95
2022-10-09T15:50:15.219Z,11.13
2022-10-09T15:52:06.056Z,10.43
2022-10-09T15:53:59.846Z,10.60
2022-10-09T15:55:53.077Z,13.73
2022-10-09T15:57:43.978Z,11.38
2022-10-09T15:59:34.997Z,10.73
2022-10-09T16:01:26.450Z,14.73
2022-10-09T16:03:18.675Z,13.20
2022-10-09T16:05:09.812Z,11.13
2022-10-09T16:07:00.261Z,11.57
2022-10-09T16:08:51.019Z,14.57
2022-10-09T16:10:46.403Z,12.43
2022-10-09T16:12:39.383Z,13.60
2022-10-09T16:14:31.317Z,12.45
2022-10-09T16:16:24.668Z,12.57
2022-10-09T16:18:18.319Z,14.73
2022-10-09T16:20:09.945Z,14.50
2022-10-09T16:22:00.810Z,11.40
2022-10-09T16:23:57.358Z,8.48
2022-10-09T16:25:58.556Z,10.95
2022-10-09T16:28:00.843Z,10.65
2022-10-09T16:29:59.787Z,13.25
2022-10-09T16:31:50.713Z,14.50
2022-10-09T16:33:42.892Z,10.05
2022-10-09T16:35:33.913Z,13.27
2022-10-09T16:37:24.534Z,13.88
2022-10-09T16:39:15.213Z,12.60
2022-10-09T16:41:08.884Z,8.88
2022-10-09T16:42:59.491Z,11.82
2022-10-09T16:44:50.165Z,9.77
2022-10-09T16:46:41.171Z,18.15
2022-10-09T16:48:32.898Z,11.00
2022-10-09T16:50:25.586Z,8.98
2022-10-09T16:52:16.055Z,11.27
2022-10-09T16:54:06.972Z,11.70
2022-10-09T16:56:08.533Z,9.18
2022-10-09T16:57:59.388Z,8.98
2022-10-09T16:59:50.371Z,9.80
2022-10-09T17:01:41.419Z,12.82
2022-10-09T17:03:32.294Z,11.80
2022-10-09T17:05:22.953Z,8.85
2022-10-09T17:07:15.411Z,7.75
2022-10-09T17:09:13.534Z,11.43
2022-10-09T17:11:07.848Z,9.18
2022-10-09T17:12:58.356Z,8.35
2022-10-09T17:14:51.373Z,10.77
2022-10-09T17:16:43.265Z,17.50
2022-10-09T17:18:35.161Z,13.02
2022-10-09T17:20:25.995Z,14.02
2022-10-09T17:22:18.789Z,9.27
2022-10-09T17:24:15.068Z,10.15
2022-10-09T17:26:06.669Z,11.50
2022-10-09T17:27:57.454Z,14.50
2022-10-09T17:29:47.879Z,13.35
2022-10-09T17:31:38.732Z,16.02
2022-10-09T17:33:30.196Z,9.98
2022-10-09T17:35:21.176Z,8.55
2022-10-09T17:37:13.139Z,12.55
2022-10-09T17:40:57.646Z,12.88
2022-10-09T17:42:48.664Z,15.95
2022-10-09T17:44:39.912Z,13.25
2022-10-09T17:46:30.866Z,11.35
2022-10-09T17:48:21.791Z,13.45
2022-10-09T17:50:12.374Z,11.98
2022-10-09T17:52:03.325Z,8.88
2022-10-09T17:55:50.931Z,12.70
2022-10-09T17:57:41.547Z,13.40
2022-10-09T17:59:32.697Z,14.88
2022-10-09T18:01:23.636Z,14.13
2022-10-09T18:03:15.164Z,13.70
2022-10-09T18:05:06.858Z,13.70
2022-10-09T18:06:57.790Z,10.38
2022-10-09T18:08:48.469Z,12.35
2022-10-09T18:10:39.370Z,13.35
2022-10-09T18:12:31.842Z,10.43
2022-10-09T18:14:22.524Z,14.00
2022-10-09T18:16:16.363Z,12.55
2022-10-09T18:18:07.542Z,15.35
2022-10-09T18:19:58.209Z,12.77
2022-10-09T18:21:50.376Z,10.65
2022-10-09T18:23:41.100Z,13.15
2022-10-09T18:25:32.176Z,18.08
2022-10-09T18:27:22.959Z,17.35
2022-10-09T18:29:15.359Z,16.05
2022-10-09T18:31:07.316Z,12.05
2022-10-09T18:32:58.423Z,19.60
2022-10-09T18:34:49.031Z,13.02
2022-10-09T18:36:39.914Z,17.83
2022-10-09T18:38:31.271Z,15.50
2022-10-09T18:40:21.909Z,20.20
2022-10-09T18:42:12.656Z,20.58
2022-10-09T18:44:04.426Z,19.48
2022-10-09T18:45:56.769Z,22.85
2022-10-09T18:47:48.088Z,17.25
2022-10-09T18:49:44.060Z,14.50
2022-10-09T18:51:36.276Z,15.20
2022-10-09T18:53:27.219Z,20.33
2022-10-09T18:55:19.671Z,29.52
2022-10-09T18:57:10.706Z,17.25
2022-10-09T18:59:08.849Z,15.23
2022-10-09T19:01:04.250Z,16.35
2022-10-09T19:02:57.580Z,18.33
2022-10-09T19:04:48.948Z,13.15
2022-10-09T19:06:40.043Z,11.55
2022-10-09T19:08:30.637Z,14.50
2022-10-09T19:10:21.230Z,15.57
2022-10-09T19:12:12.132Z,16.02
2022-10-09T19:14:03.057Z,17.35
2022-10-09T19:15:56.166Z,13.43
2022-10-09T19:17:48.382Z,13.35
2022-10-09T19:19:39.595Z,16.27
2022-10-09T19:21:30.021Z,15.20
2022-10-09T19:23:20.805Z,13.63
2022-10-09T19:25:12.157Z,13.88
2022-10-09T19:27:03.801Z,15.10
2022-10-09T19:28:54.415Z,20.90
2022-10-09T19:30:46.170Z,15.85
2022-10-09T19:32:37.199Z,11.32
2022-10-09T19:34:30.104Z,17.73
2022-10-09T19:36:20.854Z,14.57
2022-10-09T19:38:12.082Z,14.88
2022-10-09T19:40:03.029Z,11.30
2022-10-09T19:41:53.489Z,13.63
2022-10-09T19:43:44.442Z,17.80
2022-10-09T19:45:35.618Z,14.07
2022-10-09T19:47:26.674Z,15.35
2022-10-09T19:49:17.827Z,14.60
2022-10-09T19:51:13.776Z,13.45
2022-10-09T19:53:04.207Z,17.48
2022-10-09T19:54:54.995Z,14.05
2022-10-09T19:56:45.612Z,11.98
2022-10-09T19:58:39.204Z,17.08
2022-10-09T20:00:30.432Z,16.48
2022-10-09T20:02:20.884Z,16.45
2022-10-09T20:04:11.821Z,20.27
2022-10-09T20:06:03.537Z,15.25
2022-10-09T20:07:55.988Z,13.70
2022-10-09T20:09:46.769Z,18.60
2022-10-09T20:11:38.094Z,16.40
2022-10-09T20:13:29.310Z,12.10
2022-10-09T20:15:21.688Z,13.30
2022-10-09T20:17:12.725Z,11.40
2022-10-09T20:19:06.660Z,15.00
2022-10-09T20:20:57.438Z,12.27
2022-10-09T20:22:49.299Z,14.25
2022-10-09T20:24:42.040Z,17.70
2022-10-09T20:28:38.790Z,19.42
2022-10-09T20:30:29.458Z,14.93
2022-10-09T20:32:20.454Z,14.60
2022-10-09T20:34:10.917Z,17.48
2022-10-09T20:36:03.909Z,10.50
2022-10-09T20:37:54.801Z,17.63
2022-10-09T20:39:47.512Z,13.32
2022-10-09T20:41:39.348Z,14.57
2022-10-09T20:43:30.096Z,16.40
2022-10-09T20:45:20.698Z,18.27
2022-10-09T20:47:11.727Z,13.98
2022-10-09T20:49:04.302Z,21.30
2022-10-09T20:50:55.280Z,16.25
2022-10-09T20:52:46.438Z,14.70
2022-10-09T20:54:37.452Z,14.88
2022-10-09T20:56:32.855Z,21.50
2022-10-09T20:58:23.578Z,18.83
2022-10-09T21:00:14.823Z,13.15
2022-10-09T21:02:05.633Z,20.65
2022-10-09T21:03:57.414Z,20.60
2022-10-09T21:07:39.119Z,17.40
2022-10-09T21:09:33.255Z,16.42
2022-10-09T21:11:25.065Z,21.63
2022-10-09T21:13:17.471Z,14.50
2022-10-09T21:15:10.591Z,16.27
2022-10-09T21:18:54.942Z,16.50
2022-10-09T21:20:48.487Z,19.73
2022-10-09T21:22:39.332Z,14.00
2022-10-09T21:24:30.240Z,19.13
2022-10-09T21:26:11.865Z,15.60
2022-10-09T21:28:03.275Z,14.13
2022-10-09T21:29:55.309Z,15.57
2022-10-09T21:31:45.745Z,14.10
2022-10-09T21:33:36.958Z,13.15
2022-10-09T21:35:27.782Z,22.85
2022-10-09T21:37:22.387Z,19.08
2022-10-09T21:39:14.057Z,14.73
2022-10-09T21:41:05.216Z,15.23
2022-10-09T21:42:56.105Z,13.17
2022-10-09T21:44:46.980Z,18.17
2022-10-09T21:46:39.047Z,14.15
2022-10-09T21:48:29.791Z,16.85
2022-10-09T21:50:20.682Z,19.52
2022-10-09T21:52:11.490Z,13.45
2022-10-09T21:54:02.423Z,16.88
2022-10-09T21:55:53.188Z,13.05
2022-10-09T21:57:45.293Z,15.23
2022-10-09T21:59:36.155Z,18.35
2022-10-09T22:01:26.902Z,13.45
2022-10-09T22:03:19.100Z,12.80
2022-10-09T22:07:01.634Z,17.08
2022-10-09T22:08:52.731Z,15.40
2022-10-09T22:10:43.494Z,19.55
2022-10-09T22:12:34.512Z,17.23
2022-10-09T22:14:25.296Z,19.20
2022-10-09T22:16:16.103Z,18.27
2022-10-09T22:18:07.419Z,18.60
2022-10-09T22:19:59.125Z,19.02
2022-10-09T22:21:50.245Z,16.20
2022-10-09T22:23:41.434Z,20.45
2022-10-09T22:25:33.362Z,20.00
2022-10-09T22:27:23.921Z,21.80
2022-10-09T22:29:15.005Z,13.65
2022-10-09T22:31:08.906Z,12.95
2022-10-09T22:32:59.639Z,15.18
2022-10-09T22:34:51.275Z,19.98
2022-10-09T22:36:44.024Z,18.15
2022-10-09T22:38:35.238Z,13.60
2022-10-09T22:40:25.852Z,12.57
2022-10-09T22:42:16.825Z,18.85
2022-10-09T22:44:09.200Z,13.52
2022-10-09T22:46:00.068Z,20.70
2022-10-09T22:47:51.277Z,15.55
2022-10-09T22:49:42.187Z,17.88
2022-10-09T22:51:33.494Z,20.00
2022-10-09T22:53:25.752Z,15.07
2022-10-09T22:55:16.805Z,17.83
2022-10-09T22:57:07.429Z,15.50
2022-10-09T22:58:58.091Z,16.52
2022-10-09T23:00:48.697Z,14.43
2022-10-09T23:02:39.454Z,16.55
2022-10-09T23:04:30.207Z,18.25
2022-10-09T23:06:21.138Z,12.93
2022-10-09T23:08:11.815Z,15.82
2022-10-09T23:10:04.715Z,15.98
2022-10-09T23:11:56.720Z,15.13
2022-10-09T23:13:51.899Z,17.48
2022-10-09T23:15:42.353Z,13.02
2022-10-09T23:17:33.175Z,18.85
2022-10-09T23:19:24.109Z,17.63
2022-10-09T23:21:18.353Z,13.02
2022-10-09T23:23:08.976Z,14.73
2022-10-09T23:24:59.745Z,13.82
2022-10-09T23:26:52.683Z,15.20
2022-10-09T23:28:48.362Z,15.40
2022-10-09T23:30:39.641Z,15.13
2022-10-09T23:32:30.784Z,16.77
2022-10-09T23:34:21.695Z,18.05
2022-10-09T23:36:15.051Z,12.90
2022-10-09T23:38:05.989Z,11.93
2022-10-09T23:39:56.851Z,12.85
2022-10-09T23:41:47.897Z,15.95
2022-10-09T23:43:41.373Z,11.25
2022-10-09T23:45:32.202Z,16.02
2022-10-09T23:47:22.863Z,20.33
2022-10-09T23:49:13.630Z,13.73
2022-10-09T23:51:04.834Z,14.63
2022-10-09T23:52:55.532Z,14.35
2022-10-09T23:54:46.434Z,16.40
2022-10-09T23:56:37.368Z,16.00
2022-10-09T23:58:27.918Z,13.43
